Huvudsida
METAR-TAF:

METAR-TAF

Flygplatser :

Angers, Frankrike

latitud: 47-33-37N, longitud: 000-18-44W, höjd: 59 m

Aktuellt väderrapport

Denna rapport gjordes för 36 minuter sedan, klockan 20:30 UTC
Vind 5 kt från ost/nordost
Temperatur 18°C
Fuktighet 39%
Tryck 1019 hPa
Sikt 10 km eller mer
Inga moln under 1 500 m eller inga cumulonimbus

METAR: LFJR 292030Z AUTO 07005KT CAVOK 18/04 Q1019

Tid: 23:06 (21:06 UTC)


TAF: saknas

Aktuella väderrapporter och prognoser från 4000 flygplatser (METAR- och TAF-rapporter).

De tillgängliga stationerna syns som gula och röda prickar på kartan.

För musen över prickarna för att se namnen på stationerna.

Klicka sedan för att få väderrapporter och prognoser.

För att ändra kartan: Klicka på de gröna knapparna med ett svart kors på för att zooma in; den gröna knappen med ett streck på för att zooma ut; eller på de gröna pilarna för angränsande kartor.


METAR-TAF: